createdAt,value
2022-10-12T00:00:50.261Z,21.20
2022-10-12T00:03:18.207Z,21.20
2022-10-12T00:05:46.417Z,21.10
2022-10-12T00:08:14.259Z,21.10
2022-10-12T00:10:42.377Z,21.10
2022-10-12T00:13:12.216Z,21.10
2022-10-12T00:15:40.409Z,21.10
2022-10-12T00:18:08.202Z,21.10
2022-10-12T00:20:36.051Z,21.00
2022-10-12T00:23:04.196Z,21.00
2022-10-12T00:25:31.961Z,21.00
2022-10-12T00:28:00.417Z,21.00
2022-10-12T00:30:29.472Z,21.00
2022-10-12T00:32:58.380Z,20.90
2022-10-12T00:35:26.171Z,20.90
2022-10-12T00:37:55.713Z,20.90
2022-10-12T00:40:23.595Z,20.90
2022-10-12T00:42:51.493Z,20.90
2022-10-12T00:45:19.667Z,20.90
2022-10-12T00:47:50.949Z,20.90
2022-10-12T00:50:20.680Z,20.80
2022-10-12T00:52:50.996Z,20.80
2022-10-12T00:55:19.994Z,20.80
2022-10-12T00:57:48.024Z,20.70
2022-10-12T01:00:16.721Z,20.70
2022-10-12T01:02:44.454Z,20.60
2022-10-12T01:05:13.824Z,20.60
2022-10-12T01:07:41.632Z,20.60
2022-10-12T01:10:10.694Z,20.60
2022-10-12T01:12:38.687Z,20.60
2022-10-12T01:15:07.991Z,20.50
2022-10-12T01:17:37.926Z,20.50
2022-10-12T01:20:41.093Z,20.50
2022-10-12T01:23:48.038Z,20.50
2022-10-12T01:26:25.268Z,20.40
2022-10-12T01:28:56.688Z,20.40
2022-10-12T01:31:32.400Z,20.40
2022-10-12T01:34:01.928Z,20.40
2022-10-12T01:36:33.219Z,20.40
2022-10-12T01:39:03.619Z,20.30
2022-10-12T01:41:33.293Z,20.30
2022-10-12T01:44:01.164Z,20.30
2022-10-12T01:46:44.190Z,20.30
2022-10-12T01:49:11.865Z,20.30
2022-10-12T01:51:48.097Z,20.20
2022-10-12T01:54:18.711Z,20.30
2022-10-12T01:56:49.531Z,20.20
2022-10-12T01:59:20.125Z,20.20
2022-10-12T02:01:51.877Z,20.20
2022-10-12T02:04:21.971Z,20.20
2022-10-12T02:06:52.829Z,20.20
2022-10-12T02:09:22.147Z,20.20
2022-10-12T02:11:50.245Z,20.10
2022-10-12T02:14:19.137Z,20.10
2022-10-12T02:16:50.949Z,20.10
2022-10-12T02:19:21.057Z,20.00
2022-10-12T02:21:48.755Z,20.00
2022-10-12T02:24:16.782Z,20.00
2022-10-12T02:26:44.595Z,19.90
2022-10-12T02:29:15.823Z,19.90
2022-10-12T02:31:46.733Z,19.90
2022-10-12T02:34:18.187Z,19.90
2022-10-12T02:36:48.608Z,19.90
2022-10-12T02:39:18.422Z,19.90
2022-10-12T02:41:48.307Z,19.90
2022-10-12T02:44:17.516Z,19.90
2022-10-12T02:46:46.006Z,19.90
2022-10-12T02:49:15.169Z,19.90
2022-10-12T02:51:43.433Z,19.90
2022-10-12T02:54:11.410Z,19.80
2022-10-12T02:56:43.858Z,19.80
2022-10-12T02:59:11.736Z,19.80
2022-10-12T03:01:39.930Z,19.80
2022-10-12T03:04:07.699Z,19.80
2022-10-12T03:06:36.832Z,19.70
2022-10-12T03:09:05.176Z,19.70
2022-10-12T03:11:32.952Z,19.70
2022-10-12T03:14:00.749Z,19.60
2022-10-12T03:16:28.487Z,19.70
2022-10-12T03:18:56.632Z,19.60
2022-10-12T03:21:24.565Z,19.60
2022-10-12T03:23:53.981Z,19.60
2022-10-12T03:26:23.041Z,19.60
2022-10-12T03:28:51.645Z,19.60
2022-10-12T03:31:19.579Z,19.50
2022-10-12T03:33:47.845Z,19.50
2022-10-12T03:36:15.614Z,19.50
2022-10-12T03:38:43.891Z,19.50
2022-10-12T03:41:12.995Z,19.50
2022-10-12T03:43:41.094Z,19.50
2022-10-12T03:46:08.827Z,19.40
2022-10-12T03:48:36.931Z,19.40
2022-10-12T03:51:04.835Z,19.40
2022-10-12T03:53:32.753Z,19.40
2022-10-12T03:56:00.553Z,19.40
2022-10-12T03:58:29.942Z,19.30
2022-10-12T04:00:58.161Z,19.30
2022-10-12T04:03:25.938Z,19.30
2022-10-12T04:05:54.670Z,19.30
2022-10-12T04:08:22.888Z,19.30
2022-10-12T04:10:51.468Z,19.30
2022-10-12T04:13:19.591Z,19.30
2022-10-12T04:15:48.671Z,19.20
2022-10-12T04:18:17.094Z,19.20
2022-10-12T04:20:45.021Z,19.10
2022-10-12T04:23:13.429Z,19.10
2022-10-12T04:25:41.262Z,19.10
2022-10-12T04:28:09.464Z,19.10
2022-10-12T04:30:37.263Z,19.10
2022-10-12T04:33:07.065Z,19.10
2022-10-12T04:35:35.195Z,19.10
2022-10-12T04:38:03.595Z,19.10
2022-10-12T04:40:31.457Z,19.00
2022-10-12T04:42:59.173Z,19.00
2022-10-12T04:45:27.280Z,19.00
2022-10-12T04:47:55.025Z,19.00
2022-10-12T04:50:29.661Z,19.00
2022-10-12T04:52:57.822Z,19.00
2022-10-12T04:55:26.168Z,19.00
2022-10-12T04:57:54.049Z,19.00
2022-10-12T05:00:22.260Z,18.90
2022-10-12T05:02:50.647Z,18.90
2022-10-12T05:05:18.771Z,18.90
2022-10-12T05:07:47.843Z,18.90
2022-10-12T05:10:15.743Z,18.90
2022-10-12T05:12:43.787Z,18.90
2022-10-12T05:15:12.621Z,18.80
2022-10-12T05:17:40.906Z,18.80
2022-10-12T05:20:11.109Z,18.80
2022-10-12T05:22:39.031Z,18.70
2022-10-12T05:25:10.689Z,18.70
2022-10-12T05:27:39.095Z,18.80
2022-10-12T05:30:09.510Z,18.80
2022-10-12T05:32:37.643Z,18.70
2022-10-12T05:35:06.717Z,18.70
2022-10-12T05:37:34.666Z,18.70
2022-10-12T05:40:02.984Z,18.70
2022-10-12T05:42:32.250Z,18.70
2022-10-12T05:45:00.439Z,18.60
2022-10-12T05:47:28.665Z,18.60
2022-10-12T05:49:56.672Z,18.60
2022-10-12T05:52:24.551Z,18.60
2022-10-12T05:54:52.317Z,18.60
2022-10-12T05:57:20.050Z,18.60
2022-10-12T05:59:49.531Z,18.60
2022-10-12T06:02:18.455Z,18.60
2022-10-12T06:04:46.618Z,18.60
2022-10-12T06:07:14.609Z,18.50
2022-10-12T06:09:44.719Z,18.50
2022-10-12T06:12:12.710Z,18.60
2022-10-12T06:14:41.093Z,18.50
2022-10-12T06:17:10.153Z,18.50
2022-10-12T06:19:37.892Z,18.50
2022-10-12T06:22:06.313Z,18.50
2022-10-12T06:24:34.261Z,18.50
2022-10-12T06:27:02.757Z,18.50
2022-10-12T06:29:30.643Z,18.50
2022-10-12T06:31:59.466Z,18.50
2022-10-12T06:34:28.635Z,18.50
2022-10-12T06:37:01.520Z,18.50
2022-10-12T06:39:29.874Z,18.50
2022-10-12T06:41:58.156Z,18.50
2022-10-12T06:44:25.960Z,18.50
2022-10-12T06:46:54.086Z,18.50
2022-10-12T06:49:22.082Z,18.60
2022-10-12T06:51:51.444Z,18.50
2022-10-12T06:54:19.403Z,18.60
2022-10-12T06:56:47.600Z,18.60
2022-10-12T06:59:15.466Z,18.60
2022-10-12T07:01:43.538Z,18.60
2022-10-12T07:04:11.696Z,18.60
2022-10-12T07:06:40.092Z,18.70
2022-10-12T07:09:15.233Z,18.70
2022-10-12T07:11:43.405Z,18.70
2022-10-12T07:14:11.321Z,18.70
2022-10-12T07:16:39.076Z,18.80
2022-10-12T07:19:06.890Z,18.70
2022-10-12T07:21:35.521Z,18.80
2022-10-12T07:24:03.278Z,18.80
2022-10-12T07:26:32.890Z,18.80
2022-10-12T07:29:02.164Z,18.80
2022-10-12T07:31:30.962Z,18.90
2022-10-12T07:33:58.721Z,18.90
2022-10-12T07:36:35.791Z,19.00
2022-10-12T07:39:15.181Z,19.00
2022-10-12T07:41:44.549Z,19.00
2022-10-12T07:44:12.690Z,19.10
2022-10-12T07:46:41.019Z,19.10
2022-10-12T07:49:09.305Z,19.20
2022-10-12T07:51:37.149Z,19.30
2022-10-12T07:54:05.087Z,19.40
2022-10-12T07:56:33.105Z,19.50
2022-10-12T07:59:02.398Z,19.60
2022-10-12T08:01:31.095Z,19.70
2022-10-12T08:04:01.756Z,19.70
2022-10-12T08:06:31.435Z,19.80
2022-10-12T08:08:59.801Z,19.90
2022-10-12T08:11:27.551Z,19.90
2022-10-12T08:13:56.041Z,20.00
2022-10-12T08:16:25.211Z,20.10
2022-10-12T08:18:53.431Z,20.20
2022-10-12T08:21:21.107Z,20.20
2022-10-12T08:23:49.686Z,20.40
2022-10-12T08:26:17.732Z,20.50
2022-10-12T08:28:46.264Z,20.60
2022-10-12T08:31:15.101Z,20.80
2022-10-12T08:33:44.511Z,20.90
2022-10-12T08:36:12.889Z,21.10
2022-10-12T08:38:43.464Z,21.30
2022-10-12T08:41:24.567Z,21.50
2022-10-12T08:44:08.437Z,21.80
2022-10-12T08:46:36.096Z,22.00
2022-10-12T08:49:07.296Z,22.10
2022-10-12T08:51:37.436Z,22.10
2022-10-12T08:54:07.923Z,22.20
2022-10-12T08:56:35.876Z,22.30
2022-10-12T08:59:04.352Z,22.30
2022-10-12T09:01:37.078Z,22.40
2022-10-12T09:04:15.503Z,22.50
2022-10-12T09:06:47.201Z,22.60
2022-10-12T09:09:22.122Z,22.90
2022-10-12T09:12:05.168Z,23.20
2022-10-12T09:14:34.768Z,23.60
2022-10-12T09:17:03.908Z,23.90
2022-10-12T09:19:35.739Z,24.10
2022-10-12T09:22:04.087Z,24.40
2022-10-12T09:24:34.979Z,24.70
2022-10-12T09:27:09.310Z,25.00
2022-10-12T09:29:37.133Z,25.20
2022-10-12T09:32:24.813Z,25.40
2022-10-12T09:34:54.071Z,25.70
2022-10-12T09:37:23.036Z,26.00
2022-10-12T09:39:50.983Z,26.30
2022-10-12T09:42:19.384Z,26.60
2022-10-12T09:44:49.036Z,26.70
2022-10-12T09:47:28.572Z,26.80
2022-10-12T09:50:02.163Z,26.90
2022-10-12T09:52:31.901Z,26.90
2022-10-12T09:55:04.854Z,27.00
2022-10-12T09:57:35.634Z,27.00
2022-10-12T10:00:06.577Z,27.20
2022-10-12T10:02:35.239Z,27.30
2022-10-12T10:05:16.397Z,27.30
2022-10-12T10:07:44.688Z,27.40
2022-10-12T10:10:17.690Z,27.40
2022-10-12T10:12:50.916Z,27.50
2022-10-12T10:15:24.193Z,27.70
2022-10-12T10:17:54.272Z,27.90
2022-10-12T10:20:28.281Z,28.20
2022-10-12T10:22:56.149Z,28.50
2022-10-12T10:25:24.595Z,28.80
2022-10-12T10:27:52.616Z,29.10
2022-10-12T10:30:32.453Z,29.40
2022-10-12T10:33:14.942Z,29.70
2022-10-12T10:36:04.493Z,30.00
2022-10-12T10:38:33.869Z,30.40
2022-10-12T10:41:04.302Z,30.70
2022-10-12T10:43:32.444Z,31.00
2022-10-12T10:46:01.296Z,31.30
2022-10-12T10:48:30.320Z,31.50
2022-10-12T10:51:01.189Z,31.70
2022-10-12T10:53:31.319Z,31.90
2022-10-12T10:56:02.749Z,32.10
2022-10-12T10:58:33.734Z,32.30
2022-10-12T11:01:03.533Z,32.70
2022-10-12T11:03:34.125Z,33.50
2022-10-12T11:06:09.661Z,34.50
2022-10-12T11:08:37.966Z,35.50
2022-10-12T11:11:09.143Z,36.60
2022-10-12T11:13:39.766Z,37.60
2022-10-12T11:16:11.844Z,38.50
2022-10-12T11:18:42.240Z,39.40
2022-10-12T11:21:13.741Z,40.20
2022-10-12T11:23:44.077Z,40.90
2022-10-12T11:26:16.831Z,41.50
2022-10-12T11:28:44.965Z,42.10
2022-10-12T11:31:19.020Z,42.60
2022-10-12T11:33:47.113Z,43.20
2022-10-12T11:36:19.714Z,43.60
2022-10-12T11:38:48.041Z,44.10
2022-10-12T11:44:06.221Z,44.60
2022-10-12T11:46:36.425Z,45.00
2022-10-12T11:49:07.307Z,45.20
2022-10-12T11:51:36.343Z,45.30
2022-10-12T11:54:06.007Z,45.50
2022-10-12T11:56:35.713Z,45.60
2022-10-12T11:59:05.637Z,45.70
2022-10-12T12:01:48.945Z,45.70
2022-10-12T12:04:41.107Z,45.80
2022-10-12T12:07:40.720Z,45.90
2022-10-12T12:10:41.715Z,46.10
2022-10-12T12:13:18.676Z,46.30
2022-10-12T12:16:33.711Z,46.40
2022-10-12T12:19:12.326Z,46.60
2022-10-12T12:22:13.523Z,46.80
2022-10-12T12:24:43.228Z,46.80
2022-10-12T12:27:22.321Z,46.80
2022-10-12T12:29:52.216Z,47.00
2022-10-12T12:32:19.864Z,47.00
2022-10-12T12:34:59.262Z,47.00
2022-10-12T12:37:29.810Z,47.10
2022-10-12T12:39:59.709Z,47.20
2022-10-12T12:42:32.097Z,47.20
2022-10-12T12:45:02.316Z,47.30
2022-10-12T12:47:46.473Z,47.30
2022-10-12T12:50:33.070Z,47.20
2022-10-12T12:53:06.600Z,47.20
2022-10-12T12:55:54.386Z,47.30
2022-10-12T12:58:35.473Z,47.30
2022-10-12T13:01:15.771Z,47.30
2022-10-12T13:04:00.673Z,47.20
2022-10-12T13:06:57.165Z,47.20
2022-10-12T13:09:38.722Z,47.30
2022-10-12T13:12:15.304Z,47.30
2022-10-12T13:14:54.591Z,47.20
2022-10-12T13:17:35.414Z,47.20
2022-10-12T13:20:03.555Z,47.20
2022-10-12T13:22:33.294Z,47.10
2022-10-12T13:25:03.025Z,47.10
2022-10-12T13:27:36.055Z,47.00
2022-10-12T13:30:06.935Z,46.80
2022-10-12T13:32:40.255Z,46.80
2022-10-12T13:35:13.654Z,46.60
2022-10-12T13:37:41.647Z,46.30
2022-10-12T13:40:30.651Z,45.50
2022-10-12T13:43:14.980Z,44.50
2022-10-12T13:45:45.730Z,43.20
2022-10-12T13:48:34.037Z,41.80
2022-10-12T13:51:22.648Z,40.70
2022-10-12T13:53:50.701Z,39.40
2022-10-12T13:56:19.335Z,38.40
2022-10-12T13:58:48.978Z,37.70
2022-10-12T14:01:16.860Z,37.10
2022-10-12T14:03:46.994Z,36.80
2022-10-12T14:06:28.949Z,36.60
2022-10-12T14:08:58.390Z,36.30
2022-10-12T14:11:26.584Z,36.00
2022-10-12T14:13:56.373Z,36.00
2022-10-12T14:16:24.407Z,35.90
2022-10-12T14:18:52.515Z,35.60
2022-10-12T14:21:25.840Z,30.30
2022-10-12T14:23:55.081Z,27.80
2022-10-12T14:26:28.981Z,25.80
2022-10-12T14:28:58.694Z,24.90
2022-10-12T14:31:50.195Z,25.20
2022-10-12T14:34:38.130Z,25.40
2022-10-12T14:37:07.481Z,25.00
2022-10-12T14:39:35.181Z,24.20
2022-10-12T14:42:04.936Z,24.50
2022-10-12T14:44:44.104Z,24.00
2022-10-12T14:47:16.581Z,24.30
2022-10-12T14:49:45.116Z,23.90
2022-10-12T14:52:18.791Z,23.10
2022-10-12T14:54:46.489Z,22.80
2022-10-12T14:57:15.721Z,22.60
2022-10-12T14:59:44.808Z,23.90
2022-10-12T15:02:16.006Z,25.00
2022-10-12T15:04:44.232Z,25.70
2022-10-12T15:07:16.741Z,26.10
2022-10-12T15:09:45.197Z,26.40
2022-10-12T15:12:14.324Z,26.70
2022-10-12T15:14:44.251Z,26.80
2022-10-12T15:17:13.580Z,26.90
2022-10-12T15:19:42.126Z,27.00
2022-10-12T15:22:10.943Z,27.00
2022-10-12T15:24:38.612Z,27.10
2022-10-12T15:27:06.692Z,27.10
2022-10-12T15:29:34.428Z,27.10
2022-10-12T15:32:03.794Z,27.00
2022-10-12T15:34:31.510Z,27.10
2022-10-12T15:36:59.358Z,27.10
2022-10-12T15:39:29.280Z,27.00
2022-10-12T15:41:56.976Z,27.00
2022-10-12T15:44:25.119Z,27.00
2022-10-12T15:46:52.930Z,27.00
2022-10-12T15:49:24.679Z,27.00
2022-10-12T15:51:53.138Z,26.90
2022-10-12T15:54:21.549Z,26.90
2022-10-12T15:56:49.467Z,26.80
2022-10-12T15:59:17.270Z,26.80
2022-10-12T16:01:45.260Z,26.80
2022-10-12T16:04:14.647Z,26.70
2022-10-12T16:06:44.122Z,26.70
2022-10-12T16:09:11.799Z,26.70
2022-10-12T16:11:39.874Z,26.70
2022-10-12T16:14:07.579Z,26.60
2022-10-12T16:16:35.696Z,26.60
2022-10-12T16:19:03.369Z,26.60
2022-10-12T16:21:31.443Z,26.50
2022-10-12T16:24:00.674Z,26.50
2022-10-12T16:26:28.826Z,26.50
2022-10-12T16:28:56.935Z,26.50
2022-10-12T16:31:24.642Z,26.50
2022-10-12T16:33:52.693Z,26.50
2022-10-12T16:36:20.874Z,26.50
2022-10-12T16:38:48.541Z,26.50
2022-10-12T16:41:18.989Z,26.50
2022-10-12T16:43:46.671Z,26.50
2022-10-12T16:46:14.991Z,26.40
2022-10-12T16:48:43.985Z,26.40
2022-10-12T16:51:12.771Z,26.40
2022-10-12T16:53:42.678Z,26.40
2022-10-12T16:56:10.714Z,26.30
2022-10-12T16:58:40.516Z,26.30
2022-10-12T17:01:11.523Z,26.30
2022-10-12T17:03:39.795Z,26.30
2022-10-12T17:06:08.549Z,26.30
2022-10-12T17:08:38.938Z,26.20
2022-10-12T17:11:08.633Z,26.10
2022-10-12T17:13:38.603Z,26.00
2022-10-12T17:16:28.187Z,26.00
2022-10-12T17:18:59.474Z,25.90
2022-10-12T17:21:28.527Z,25.90
2022-10-12T17:23:57.227Z,25.80
2022-10-12T17:26:25.328Z,25.80
2022-10-12T17:28:54.793Z,25.70
2022-10-12T17:31:22.925Z,25.70
2022-10-12T17:33:50.828Z,25.60
2022-10-12T17:36:18.742Z,25.50
2022-10-12T17:38:46.525Z,25.50
2022-10-12T17:41:14.298Z,25.40
2022-10-12T17:43:42.651Z,25.40
2022-10-12T17:46:13.456Z,25.40
2022-10-12T17:48:42.111Z,25.40
2022-10-12T17:51:12.748Z,25.30
2022-10-12T17:53:42.527Z,25.30
2022-10-12T17:56:12.720Z,25.20
2022-10-12T17:58:41.293Z,25.20
2022-10-12T18:01:11.849Z,25.20
2022-10-12T18:03:41.481Z,25.10
2022-10-12T18:06:10.391Z,25.10
2022-10-12T18:08:38.894Z,25.00
2022-10-12T18:11:08.526Z,25.00
2022-10-12T18:13:36.617Z,25.00
2022-10-12T18:16:04.762Z,24.90
2022-10-12T18:18:34.193Z,24.90
2022-10-12T18:21:04.548Z,24.80
2022-10-12T18:23:32.501Z,24.80
2022-10-12T18:26:04.564Z,24.80
2022-10-12T18:28:32.554Z,24.70
2022-10-12T18:31:01.332Z,24.70
2022-10-12T18:33:31.080Z,24.60
2022-10-12T18:36:04.901Z,24.60
2022-10-12T18:38:32.966Z,24.60
2022-10-12T18:41:04.248Z,24.60
2022-10-12T18:43:32.259Z,24.60
2022-10-12T18:46:00.004Z,24.50
2022-10-12T18:48:27.968Z,24.50
2022-10-12T18:50:55.873Z,24.50
2022-10-12T18:53:28.268Z,24.40
2022-10-12T18:55:56.253Z,24.40
2022-10-12T18:58:24.159Z,24.40
2022-10-12T19:00:52.441Z,24.30
2022-10-12T19:03:20.527Z,24.30
2022-10-12T19:05:49.112Z,24.30
2022-10-12T19:08:17.110Z,24.20
2022-10-12T19:10:51.838Z,24.20
2022-10-12T19:13:19.651Z,24.20
2022-10-12T19:15:47.737Z,24.10
2022-10-12T19:18:15.799Z,24.10
2022-10-12T19:20:43.823Z,24.10
2022-10-12T19:23:11.703Z,24.00
2022-10-12T19:25:40.111Z,24.00
2022-10-12T19:28:09.573Z,24.00
2022-10-12T19:30:39.059Z,23.90
2022-10-12T19:33:07.176Z,23.90
2022-10-12T19:35:38.154Z,23.90
2022-10-12T19:38:06.318Z,23.90
2022-10-12T19:40:35.926Z,23.90
2022-10-12T19:43:04.099Z,23.80
2022-10-12T19:45:38.020Z,23.80
2022-10-12T19:48:06.714Z,23.80
2022-10-12T19:50:34.702Z,23.80
2022-10-12T19:53:02.779Z,23.70
2022-10-12T19:55:33.795Z,23.70
2022-10-12T19:58:02.056Z,23.70
2022-10-12T20:00:30.167Z,23.60
2022-10-12T20:02:59.665Z,23.60
2022-10-12T20:05:27.702Z,23.60
2022-10-12T20:07:55.616Z,23.60
2022-10-12T20:10:24.080Z,23.50
2022-10-12T20:12:51.977Z,23.50
2022-10-12T20:15:20.183Z,23.50
2022-10-12T20:17:48.088Z,23.40
2022-10-12T20:20:17.540Z,23.40
2022-10-12T20:22:45.360Z,23.40
2022-10-12T20:25:13.236Z,23.40
2022-10-12T20:27:41.060Z,23.30
2022-10-12T20:30:09.956Z,23.40
2022-10-12T20:32:37.779Z,23.30
2022-10-12T20:35:06.396Z,23.30
2022-10-12T20:37:35.500Z,23.30
2022-10-12T20:40:03.371Z,23.30
2022-10-12T20:42:31.383Z,23.30
2022-10-12T20:44:59.361Z,23.30
2022-10-12T20:47:27.997Z,23.20
2022-10-12T20:49:55.884Z,23.20
2022-10-12T20:52:23.773Z,23.20
2022-10-12T20:54:54.331Z,23.20
2022-10-12T20:57:22.184Z,23.20
2022-10-12T20:59:50.272Z,23.10
2022-10-12T21:02:18.265Z,23.10
2022-10-12T21:04:46.282Z,23.10
2022-10-12T21:07:14.468Z,23.00
2022-10-12T21:09:42.903Z,23.00
2022-10-12T21:12:12.174Z,23.00
2022-10-12T21:14:40.530Z,23.00
2022-10-12T21:17:08.544Z,23.00
2022-10-12T21:19:36.485Z,23.00
2022-10-12T21:22:04.431Z,22.90
2022-10-12T21:24:32.362Z,22.90
2022-10-12T21:27:00.178Z,22.80
2022-10-12T21:29:29.383Z,22.80
2022-10-12T21:31:57.254Z,22.80
2022-10-12T21:34:25.197Z,22.80
2022-10-12T21:36:53.306Z,22.70
2022-10-12T21:39:21.038Z,22.60
2022-10-12T21:41:49.204Z,22.60
2022-10-12T21:44:17.188Z,22.60
2022-10-12T21:46:46.951Z,22.60
2022-10-12T21:49:14.750Z,22.60
2022-10-12T21:51:42.509Z,22.50
2022-10-12T21:54:10.325Z,22.40
2022-10-12T21:56:38.873Z,22.40
2022-10-12T21:59:07.315Z,22.40
2022-10-12T22:01:36.103Z,22.40
2022-10-12T22:04:06.584Z,22.40
2022-10-12T22:06:34.784Z,22.40
2022-10-12T22:09:03.456Z,22.40
2022-10-12T22:11:31.808Z,22.40
2022-10-12T22:14:01.855Z,22.40
2022-10-12T22:16:30.344Z,22.40
2022-10-12T22:18:59.390Z,22.30
2022-10-12T22:21:28.791Z,22.30
2022-10-12T22:23:57.641Z,22.30
2022-10-12T22:26:26.073Z,22.30
2022-10-12T22:28:54.043Z,22.30
2022-10-12T22:31:22.718Z,22.30
2022-10-12T22:33:50.720Z,22.20
2022-10-12T22:36:18.710Z,22.10
2022-10-12T22:38:48.160Z,22.00
2022-10-12T22:41:16.950Z,22.00
2022-10-12T22:43:44.901Z,22.00
2022-10-12T22:46:12.875Z,21.90
2022-10-12T22:48:40.656Z,21.90
2022-10-12T22:51:08.455Z,21.90
2022-10-12T22:53:36.518Z,21.90
2022-10-12T22:56:07.118Z,21.80
2022-10-12T22:58:35.414Z,21.80
2022-10-12T23:01:03.804Z,21.80
2022-10-12T23:03:32.202Z,21.70
2022-10-12T23:06:00.185Z,21.70
2022-10-12T23:08:28.755Z,21.70
2022-10-12T23:10:56.517Z,21.70
2022-10-12T23:13:26.491Z,21.70
2022-10-12T23:15:54.459Z,21.70
2022-10-12T23:18:22.967Z,21.70
2022-10-12T23:20:50.877Z,21.60
2022-10-12T23:23:19.157Z,21.60
2022-10-12T23:25:46.893Z,21.60
2022-10-12T23:28:15.143Z,21.60
2022-10-12T23:30:44.395Z,21.60
2022-10-12T23:33:12.323Z,21.60
2022-10-12T23:35:40.661Z,21.50
2022-10-12T23:38:08.381Z,21.50
2022-10-12T23:40:36.705Z,21.50
2022-10-12T23:43:04.691Z,21.50
2022-10-12T23:45:32.671Z,21.50
2022-10-12T23:48:02.097Z,21.50
2022-10-12T23:50:30.516Z,21.50
2022-10-12T23:52:58.452Z,21.50
2022-10-12T23:55:26.695Z,21.50
2022-10-12T23:57:54.636Z,21.50
